sensor_id;sensor_type;location;lat;lon;timestamp;temperature;humidity
16955;DHT22;8594;52.052;8.354;2022-08-21T00:00:26;19.30;99.90
16955;DHT22;8594;52.052;8.354;2022-08-21T00:02:56;19.40;99.90
16955;DHT22;8594;52.052;8.354;2022-08-21T00:05:27;19.20;99.90
16955;DHT22;8594;52.052;8.354;2022-08-21T00:07:55;19.20;99.90
16955;DHT22;8594;52.052;8.354;2022-08-21T00:10:23;19.10;99.90
16955;DHT22;8594;52.052;8.354;2022-08-21T00:12:50;19.40;99.90
16955;DHT22;8594;52.052;8.354;2022-08-21T00:15:22;19.50;99.90
16955;DHT22;8594;52.052;8.354;2022-08-21T00:17:52;19.50;99.90
16955;DHT22;8594;52.052;8.354;2022-08-21T00:20:20;19.40;99.90
16955;DHT22;8594;52.052;8.354;2022-08-21T00:22:47;19.50;99.90
16955;DHT22;8594;52.052;8.354;2022-08-21T00:25:16;19.50;99.90
16955;DHT22;8594;52.052;8.354;2022-08-21T00:27:43;19.60;99.90
16955;DHT22;8594;52.052;8.354;2022-08-21T00:30:14;19.40;99.90
16955;DHT22;8594;52.052;8.354;2022-08-21T00:32:43;19.40;99.90
16955;DHT22;8594;52.052;8.354;2022-08-21T00:35:11;19.40;99.90
16955;DHT22;8594;52.052;8.354;2022-08-21T00:37:41;19.40;99.90
16955;DHT22;8594;52.052;8.354;2022-08-21T00:40:12;19.60;99.90
16955;DHT22;8594;52.052;8.354;2022-08-21T00:42:41;19.70;99.90
16955;DHT22;8594;52.052;8.354;2022-08-21T00:45:09;19.80;99.90
16955;DHT22;8594;52.052;8.354;2022-08-21T00:47:37;19.70;99.90
16955;DHT22;8594;52.052;8.354;2022-08-21T00:50:07;19.80;99.90
16955;DHT22;8594;52.052;8.354;2022-08-21T00:52:36;20.10;99.90
16955;DHT22;8594;52.052;8.354;2022-08-21T00:55:05;20.00;99.90
16955;DHT22;8594;52.052;8.354;2022-08-21T00:57:39;19.80;99.90
16955;DHT22;8594;52.052;8.354;2022-08-21T01:00:13;19.90;99.90
16955;DHT22;8594;52.052;8.354;2022-08-21T01:02:43;19.90;99.90
16955;DHT22;8594;52.052;8.354;2022-08-21T01:05:12;19.60;99.90
16955;DHT22;8594;52.052;8.354;2022-08-21T01:07:40;19.30;99.90
16955;DHT22;8594;52.052;8.354;2022-08-21T01:10:09;19.20;99.90
16955;DHT22;8594;52.052;8.354;2022-08-21T01:12:36;19.40;99.90
16955;DHT22;8594;52.052;8.354;2022-08-21T01:15:04;19.40;99.90
16955;DHT22;8594;52.052;8.354;2022-08-21T01:17:33;19.70;99.90
16955;DHT22;8594;52.052;8.354;2022-08-21T01:20:03;19.40;99.90
16955;DHT22;8594;52.052;8.354;2022-08-21T01:22:33;19.40;99.90
16955;DHT22;8594;52.052;8.354;2022-08-21T01:25:00;19.40;99.90
16955;DHT22;8594;52.052;8.354;2022-08-21T01:27:27;19.40;99.90
16955;DHT22;8594;52.052;8.354;2022-08-21T01:29:59;19.50;99.90
16955;DHT22;8594;52.052;8.354;2022-08-21T01:32:30;19.40;99.90
16955;DHT22;8594;52.052;8.354;2022-08-21T01:34:57;19.40;99.90
16955;DHT22;8594;52.052;8.354;2022-08-21T01:37:24;19.30;99.90
16955;DHT22;8594;52.052;8.354;2022-08-21T01:39:52;19.30;99.90
16955;DHT22;8594;52.052;8.354;2022-08-21T01:42:19;19.20;99.90
16955;DHT22;8594;52.052;8.354;2022-08-21T01:44:46;19.20;99.90
16955;DHT22;8594;52.052;8.354;2022-08-21T01:47:14;19.30;99.90
16955;DHT22;8594;52.052;8.354;2022-08-21T01:49:43;19.30;99.90
16955;DHT22;8594;52.052;8.354;2022-08-21T01:52:11;19.30;99.90
16955;DHT22;8594;52.052;8.354;2022-08-21T01:54:38;19.20;99.90
16955;DHT22;8594;52.052;8.354;2022-08-21T01:57:07;19.30;99.90
16955;DHT22;8594;52.052;8.354;2022-08-21T01:59:35;19.30;99.90
16955;DHT22;8594;52.052;8.354;2022-08-21T02:02:02;19.00;99.90
16955;DHT22;8594;52.052;8.354;2022-08-21T02:04:30;18.80;99.90
16955;DHT22;8594;52.052;8.354;2022-08-21T02:06:56;18.70;99.90
16955;DHT22;8594;52.052;8.354;2022-08-21T02:09:23;18.60;99.90
16955;DHT22;8594;52.052;8.354;2022-08-21T02:11:50;18.70;99.90
16955;DHT22;8594;52.052;8.354;2022-08-21T02:14:19;18.80;99.90
16955;DHT22;8594;52.052;8.354;2022-08-21T02:16:46;18.70;99.90
16955;DHT22;8594;52.052;8.354;2022-08-21T02:19:15;18.60;99.90
16955;DHT22;8594;52.052;8.354;2022-08-21T02:21:42;18.80;99.90
16955;DHT22;8594;52.052;8.354;2022-08-21T02:24:10;18.70;99.90
16955;DHT22;8594;52.052;8.354;2022-08-21T02:26:38;18.60;99.90
16955;DHT22;8594;52.052;8.354;2022-08-21T02:29:05;18.40;99.90
16955;DHT22;8594;52.052;8.354;2022-08-21T02:31:33;18.20;99.90
16955;DHT22;8594;52.052;8.354;2022-08-21T02:34:00;18.10;99.90
16955;DHT22;8594;52.052;8.354;2022-08-21T02:36:28;18.20;99.90
16955;DHT22;8594;52.052;8.354;2022-08-21T02:38:54;18.30;99.90
16955;DHT22;8594;52.052;8.354;2022-08-21T02:41:22;18.50;99.90
16955;DHT22;8594;52.052;8.354;2022-08-21T02:43:49;18.50;99.90
16955;DHT22;8594;52.052;8.354;2022-08-21T02:46:19;18.60;99.90
16955;DHT22;8594;52.052;8.354;2022-08-21T02:48:48;18.60;99.90
16955;DHT22;8594;52.052;8.354;2022-08-21T02:51:18;18.60;99.90
16955;DHT22;8594;52.052;8.354;2022-08-21T02:53:48;18.50;99.90
16955;DHT22;8594;52.052;8.354;2022-08-21T02:56:19;18.60;99.90
16955;DHT22;8594;52.052;8.354;2022-08-21T02:58:49;18.60;99.90
16955;DHT22;8594;52.052;8.354;2022-08-21T03:01:17;18.60;99.90
16955;DHT22;8594;52.052;8.354;2022-08-21T03:03:47;18.60;99.90
16955;DHT22;8594;52.052;8.354;2022-08-21T03:06:17;18.60;99.90
16955;DHT22;8594;52.052;8.354;2022-08-21T03:08:46;18.60;99.90
16955;DHT22;8594;52.052;8.354;2022-08-21T03:11:14;18.60;99.90
16955;DHT22;8594;52.052;8.354;2022-08-21T03:13:41;18.80;99.90
16955;DHT22;8594;52.052;8.354;2022-08-21T03:16:09;18.90;99.90
16955;DHT22;8594;52.052;8.354;2022-08-21T03:18:36;18.80;99.90
16955;DHT22;8594;52.052;8.354;2022-08-21T03:21:05;19.00;99.90
16955;DHT22;8594;52.052;8.354;2022-08-21T03:23:32;19.10;99.90
16955;DHT22;8594;52.052;8.354;2022-08-21T03:25:59;19.00;99.90
16955;DHT22;8594;52.052;8.354;2022-08-21T03:28:26;19.00;99.90
16955;DHT22;8594;52.052;8.354;2022-08-21T03:30:53;18.80;99.90
16955;DHT22;8594;52.052;8.354;2022-08-21T03:33:20;18.70;99.90
16955;DHT22;8594;52.052;8.354;2022-08-21T03:35:53;18.70;99.90
16955;DHT22;8594;52.052;8.354;2022-08-21T03:38:26;18.80;99.90
16955;DHT22;8594;52.052;8.354;2022-08-21T03:40:54;18.80;99.90
16955;DHT22;8594;52.052;8.354;2022-08-21T03:43:21;18.90;99.90
16955;DHT22;8594;52.052;8.354;2022-08-21T03:45:48;18.80;99.90
16955;DHT22;8594;52.052;8.354;2022-08-21T03:48:15;18.80;99.90
16955;DHT22;8594;52.052;8.354;2022-08-21T03:50:43;18.70;99.90
16955;DHT22;8594;52.052;8.354;2022-08-21T03:53:13;18.50;99.90
16955;DHT22;8594;52.052;8.354;2022-08-21T03:55:42;18.60;99.90
16955;DHT22;8594;52.052;8.354;2022-08-21T03:58:10;18.50;99.90
16955;DHT22;8594;52.052;8.354;2022-08-21T04:00:36;18.50;99.90
16955;DHT22;8594;52.052;8.354;2022-08-21T04:03:04;18.40;99.90
16955;DHT22;8594;52.052;8.354;2022-08-21T04:05:31;18.30;99.90
16955;DHT22;8594;52.052;8.354;2022-08-21T04:08:02;18.40;99.90
16955;DHT22;8594;52.052;8.354;2022-08-21T04:10:32;18.40;99.90
16955;DHT22;8594;52.052;8.354;2022-08-21T04:13:03;18.40;99.90
16955;DHT22;8594;52.052;8.354;2022-08-21T04:15:31;18.30;99.90
16955;DHT22;8594;52.052;8.354;2022-08-21T04:17:58;18.30;99.90
16955;DHT22;8594;52.052;8.354;2022-08-21T04:20:26;18.30;99.90
16955;DHT22;8594;52.052;8.354;2022-08-21T04:22:53;18.20;99.90
16955;DHT22;8594;52.052;8.354;2022-08-21T04:25:22;18.20;99.90
16955;DHT22;8594;52.052;8.354;2022-08-21T04:27:51;18.10;99.90
16955;DHT22;8594;52.052;8.354;2022-08-21T04:30:19;18.10;99.90
16955;DHT22;8594;52.052;8.354;2022-08-21T04:32:49;18.30;99.90
16955;DHT22;8594;52.052;8.354;2022-08-21T04:35:18;18.40;99.90
16955;DHT22;8594;52.052;8.354;2022-08-21T04:37:47;18.20;99.90
16955;DHT22;8594;52.052;8.354;2022-08-21T04:40:16;18.20;99.90
16955;DHT22;8594;52.052;8.354;2022-08-21T04:42:47;18.10;99.90
16955;DHT22;8594;52.052;8.354;2022-08-21T04:45:19;17.80;99.90
16955;DHT22;8594;52.052;8.354;2022-08-21T04:47:49;17.90;99.90
16955;DHT22;8594;52.052;8.354;2022-08-21T04:50:17;17.90;99.90
16955;DHT22;8594;52.052;8.354;2022-08-21T04:52:44;18.10;99.90
16955;DHT22;8594;52.052;8.354;2022-08-21T04:55:13;18.20;99.90
16955;DHT22;8594;52.052;8.354;2022-08-21T04:57:42;18.20;99.90
16955;DHT22;8594;52.052;8.354;2022-08-21T05:00:10;18.20;99.90
16955;DHT22;8594;52.052;8.354;2022-08-21T05:02:41;18.20;99.90
16955;DHT22;8594;52.052;8.354;2022-08-21T05:05:08;18.10;99.90
16955;DHT22;8594;52.052;8.354;2022-08-21T05:07:35;18.00;99.90
16955;DHT22;8594;52.052;8.354;2022-08-21T05:10:04;17.90;99.90
16955;DHT22;8594;52.052;8.354;2022-08-21T05:12:33;18.00;99.90
16955;DHT22;8594;52.052;8.354;2022-08-21T05:15:01;18.20;99.90
16955;DHT22;8594;52.052;8.354;2022-08-21T05:17:28;18.10;99.90
16955;DHT22;8594;52.052;8.354;2022-08-21T05:19:56;18.30;99.90
16955;DHT22;8594;52.052;8.354;2022-08-21T05:22:24;18.30;99.90
16955;DHT22;8594;52.052;8.354;2022-08-21T05:24:51;18.30;99.90
16955;DHT22;8594;52.052;8.354;2022-08-21T05:27:18;18.30;99.90
16955;DHT22;8594;52.052;8.354;2022-08-21T05:29:45;18.30;99.90
16955;DHT22;8594;52.052;8.354;2022-08-21T05:32:13;18.60;99.90
16955;DHT22;8594;52.052;8.354;2022-08-21T05:34:40;19.20;99.90
16955;DHT22;8594;52.052;8.354;2022-08-21T05:37:10;19.30;99.90
16955;DHT22;8594;52.052;8.354;2022-08-21T05:39:38;19.60;99.90
16955;DHT22;8594;52.052;8.354;2022-08-21T05:42:05;19.70;99.90
16955;DHT22;8594;52.052;8.354;2022-08-21T05:44:32;20.20;99.90
16955;DHT22;8594;52.052;8.354;2022-08-21T05:47:03;20.70;99.90
16955;DHT22;8594;52.052;8.354;2022-08-21T05:49:31;21.00;99.90
16955;DHT22;8594;52.052;8.354;2022-08-21T05:51:58;21.40;99.90
16955;DHT22;8594;52.052;8.354;2022-08-21T05:54:27;21.50;99.90
16955;DHT22;8594;52.052;8.354;2022-08-21T05:56:54;22.00;99.90
16955;DHT22;8594;52.052;8.354;2022-08-21T05:59:20;22.60;99.90
16955;DHT22;8594;52.052;8.354;2022-08-21T06:01:48;22.80;99.90
16955;DHT22;8594;52.052;8.354;2022-08-21T06:04:17;23.20;99.90
16955;DHT22;8594;52.052;8.354;2022-08-21T06:06:44;23.70;99.90
16955;DHT22;8594;52.052;8.354;2022-08-21T06:09:12;24.00;99.90
16955;DHT22;8594;52.052;8.354;2022-08-21T06:11:40;23.60;99.90
16955;DHT22;8594;52.052;8.354;2022-08-21T06:14:07;24.10;99.90
16955;DHT22;8594;52.052;8.354;2022-08-21T06:16:34;24.20;99.90
16955;DHT22;8594;52.052;8.354;2022-08-21T06:19:01;24.70;99.90
16955;DHT22;8594;52.052;8.354;2022-08-21T06:21:28;24.80;99.90
16955;DHT22;8594;52.052;8.354;2022-08-21T06:23:54;24.90;99.90
16955;DHT22;8594;52.052;8.354;2022-08-21T06:26:21;25.20;99.90
16955;DHT22;8594;52.052;8.354;2022-08-21T06:28:50;25.50;99.90
16955;DHT22;8594;52.052;8.354;2022-08-21T06:31:20;25.70;99.90
16955;DHT22;8594;52.052;8.354;2022-08-21T06:33:48;26.20;99.90
16955;DHT22;8594;52.052;8.354;2022-08-21T06:36:15;26.50;99.90
16955;DHT22;8594;52.052;8.354;2022-08-21T06:38:42;26.70;99.90
16955;DHT22;8594;52.052;8.354;2022-08-21T06:41:10;26.90;99.90
16955;DHT22;8594;52.052;8.354;2022-08-21T06:43:37;26.90;99.90
16955;DHT22;8594;52.052;8.354;2022-08-21T06:46:06;27.00;99.90
16955;DHT22;8594;52.052;8.354;2022-08-21T06:48:33;27.20;99.90
16955;DHT22;8594;52.052;8.354;2022-08-21T06:51:01;27.30;99.90
16955;DHT22;8594;52.052;8.354;2022-08-21T06:53:28;27.40;99.90
16955;DHT22;8594;52.052;8.354;2022-08-21T06:55:55;27.00;99.90
16955;DHT22;8594;52.052;8.354;2022-08-21T06:58:22;27.50;99.90
16955;DHT22;8594;52.052;8.354;2022-08-21T07:00:49;27.40;99.90
16955;DHT22;8594;52.052;8.354;2022-08-21T07:03:24;27.70;99.90
16955;DHT22;8594;52.052;8.354;2022-08-21T07:05:53;27.10;99.90
16955;DHT22;8594;52.052;8.354;2022-08-21T07:08:20;27.20;99.90
16955;DHT22;8594;52.052;8.354;2022-08-21T07:10:48;27.50;99.90
16955;DHT22;8594;52.052;8.354;2022-08-21T07:13:15;27.80;99.90
16955;DHT22;8594;52.052;8.354;2022-08-21T07:15:42;27.90;99.90
16955;DHT22;8594;52.052;8.354;2022-08-21T07:18:10;27.50;99.90
16955;DHT22;8594;52.052;8.354;2022-08-21T07:20:40;27.80;99.90
16955;DHT22;8594;52.052;8.354;2022-08-21T07:23:11;27.70;99.90
16955;DHT22;8594;52.052;8.354;2022-08-21T07:25:40;27.70;99.90
16955;DHT22;8594;52.052;8.354;2022-08-21T07:28:07;28.20;99.90
16955;DHT22;8594;52.052;8.354;2022-08-21T07:30:34;28.50;99.90
16955;DHT22;8594;52.052;8.354;2022-08-21T07:33:01;28.20;99.90
16955;DHT22;8594;52.052;8.354;2022-08-21T07:35:27;28.30;99.90
16955;DHT22;8594;52.052;8.354;2022-08-21T07:37:57;28.00;99.90
16955;DHT22;8594;52.052;8.354;2022-08-21T07:40:24;27.80;99.90
16955;DHT22;8594;52.052;8.354;2022-08-21T07:42:51;28.20;99.90
16955;DHT22;8594;52.052;8.354;2022-08-21T07:45:19;28.20;99.90
16955;DHT22;8594;52.052;8.354;2022-08-21T07:47:49;28.50;99.90
16955;DHT22;8594;52.052;8.354;2022-08-21T07:50:17;28.60;99.90
16955;DHT22;8594;52.052;8.354;2022-08-21T07:52:45;28.10;99.90
16955;DHT22;8594;52.052;8.354;2022-08-21T07:55:15;28.00;99.90
16955;DHT22;8594;52.052;8.354;2022-08-21T07:57:45;28.40;99.90
16955;DHT22;8594;52.052;8.354;2022-08-21T08:00:14;28.80;99.90
16955;DHT22;8594;52.052;8.354;2022-08-21T08:02:45;29.00;99.90
16955;DHT22;8594;52.052;8.354;2022-08-21T08:05:18;29.20;99.90
16955;DHT22;8594;52.052;8.354;2022-08-21T08:07:46;29.10;99.80
16955;DHT22;8594;52.052;8.354;2022-08-21T08:10:15;28.90;99.60
16955;DHT22;8594;52.052;8.354;2022-08-21T08:12:44;28.70;99.80
16955;DHT22;8594;52.052;8.354;2022-08-21T08:15:15;28.70;99.60
16955;DHT22;8594;52.052;8.354;2022-08-21T08:17:43;28.90;99.90
16955;DHT22;8594;52.052;8.354;2022-08-21T08:20:12;28.70;98.70
16955;DHT22;8594;52.052;8.354;2022-08-21T08:22:41;28.60;99.30
16955;DHT22;8594;52.052;8.354;2022-08-21T08:25:09;28.60;99.10
16955;DHT22;8594;52.052;8.354;2022-08-21T08:27:40;28.60;98.00
16955;DHT22;8594;52.052;8.354;2022-08-21T08:30:10;28.60;98.40
16955;DHT22;8594;52.052;8.354;2022-08-21T08:32:40;28.40;98.50
16955;DHT22;8594;52.052;8.354;2022-08-21T08:35:10;28.80;97.40
16955;DHT22;8594;52.052;8.354;2022-08-21T08:37:39;29.10;98.00
16955;DHT22;8594;52.052;8.354;2022-08-21T08:40:12;29.10;97.40
16955;DHT22;8594;52.052;8.354;2022-08-21T08:42:46;28.60;98.00
16955;DHT22;8594;52.052;8.354;2022-08-21T08:45:18;28.60;97.30
16955;DHT22;8594;52.052;8.354;2022-08-21T08:47:53;28.10;98.20
16955;DHT22;8594;52.052;8.354;2022-08-21T08:50:27;28.30;98.40
16955;DHT22;8594;52.052;8.354;2022-08-21T08:53:02;28.50;97.90
16955;DHT22;8594;52.052;8.354;2022-08-21T08:55:35;29.10;97.80
16955;DHT22;8594;52.052;8.354;2022-08-21T08:58:06;28.90;96.20
16955;DHT22;8594;52.052;8.354;2022-08-21T09:00:34;28.30;97.30
16955;DHT22;8594;52.052;8.354;2022-08-21T09:03:02;28.20;97.20
16955;DHT22;8594;52.052;8.354;2022-08-21T09:05:38;28.40;97.60
16955;DHT22;8594;52.052;8.354;2022-08-21T09:08:36;28.20;98.50
16955;DHT22;8594;52.052;8.354;2022-08-21T09:11:21;28.10;98.30
16955;DHT22;8594;52.052;8.354;2022-08-21T09:13:59;27.80;98.80
16955;DHT22;8594;52.052;8.354;2022-08-21T09:16:42;27.70;98.60
16955;DHT22;8594;52.052;8.354;2022-08-21T09:19:33;28.00;97.10
16955;DHT22;8594;52.052;8.354;2022-08-21T09:22:14;28.30;98.40
16955;DHT22;8594;52.052;8.354;2022-08-21T09:24:53;28.40;97.70
16955;DHT22;8594;52.052;8.354;2022-08-21T09:27:33;28.60;96.90
16955;DHT22;8594;52.052;8.354;2022-08-21T09:30:04;28.70;97.00
16955;DHT22;8594;52.052;8.354;2022-08-21T09:32:35;28.30;96.50
16955;DHT22;8594;52.052;8.354;2022-08-21T09:35:06;28.30;96.10
16955;DHT22;8594;52.052;8.354;2022-08-21T09:37:44;28.20;95.80
16955;DHT22;8594;52.052;8.354;2022-08-21T09:40:19;27.90;97.40
16955;DHT22;8594;52.052;8.354;2022-08-21T09:42:56;27.70;97.50
16955;DHT22;8594;52.052;8.354;2022-08-21T09:45:26;27.90;98.20
16955;DHT22;8594;52.052;8.354;2022-08-21T09:47:54;28.10;98.10
16955;DHT22;8594;52.052;8.354;2022-08-21T09:50:24;28.10;97.30
16955;DHT22;8594;52.052;8.354;2022-08-21T09:52:55;27.80;98.20
16955;DHT22;8594;52.052;8.354;2022-08-21T09:55:31;27.60;97.80
16955;DHT22;8594;52.052;8.354;2022-08-21T09:58:18;27.30;98.80
16955;DHT22;8594;52.052;8.354;2022-08-21T10:00:57;27.60;98.20
16955;DHT22;8594;52.052;8.354;2022-08-21T10:03:26;27.60;98.10
16955;DHT22;8594;52.052;8.354;2022-08-21T10:05:56;27.20;98.20
16955;DHT22;8594;52.052;8.354;2022-08-21T10:08:27;27.50;97.90
16955;DHT22;8594;52.052;8.354;2022-08-21T10:10:57;27.60;97.70
16955;DHT22;8594;52.052;8.354;2022-08-21T10:13:43;27.60;96.70
16955;DHT22;8594;52.052;8.354;2022-08-21T10:16:29;27.90;97.40
16955;DHT22;8594;52.052;8.354;2022-08-21T10:19:10;27.70;97.30
16955;DHT22;8594;52.052;8.354;2022-08-21T10:21:53;27.80;98.40
16955;DHT22;8594;52.052;8.354;2022-08-21T10:24:29;27.90;98.00
16955;DHT22;8594;52.052;8.354;2022-08-21T10:27:09;27.90;96.90
16955;DHT22;8594;52.052;8.354;2022-08-21T10:29:47;27.80;97.20
16955;DHT22;8594;52.052;8.354;2022-08-21T10:32:31;27.90;97.00
16955;DHT22;8594;52.052;8.354;2022-08-21T10:35:12;28.10;95.90
16955;DHT22;8594;52.052;8.354;2022-08-21T10:37:52;27.90;95.80
16955;DHT22;8594;52.052;8.354;2022-08-21T10:40:51;28.40;96.40
16955;DHT22;8594;52.052;8.354;2022-08-21T10:43:32;28.20;96.50
16955;DHT22;8594;52.052;8.354;2022-08-21T10:46:12;28.00;97.20
16955;DHT22;8594;52.052;8.354;2022-08-21T10:48:52;28.70;95.20
16955;DHT22;8594;52.052;8.354;2022-08-21T10:51:30;29.00;95.90
16955;DHT22;8594;52.052;8.354;2022-08-21T10:54:07;28.80;94.70
16955;DHT22;8594;52.052;8.354;2022-08-21T10:56:41;29.00;94.90
16955;DHT22;8594;52.052;8.354;2022-08-21T10:59:24;27.70;95.20
16955;DHT22;8594;52.052;8.354;2022-08-21T11:02:00;27.20;96.50
16955;DHT22;8594;52.052;8.354;2022-08-21T11:04:38;27.60;96.30
16955;DHT22;8594;52.052;8.354;2022-08-21T11:07:16;27.50;95.60
16955;DHT22;8594;52.052;8.354;2022-08-21T11:09:49;27.50;95.90
16955;DHT22;8594;52.052;8.354;2022-08-21T11:12:24;28.00;96.30
16955;DHT22;8594;52.052;8.354;2022-08-21T11:14:57;28.20;94.80
16955;DHT22;8594;52.052;8.354;2022-08-21T11:17:32;28.40;94.70
16955;DHT22;8594;52.052;8.354;2022-08-21T11:20:08;28.50;95.30
16955;DHT22;8594;52.052;8.354;2022-08-21T11:22:46;28.20;95.00
16955;DHT22;8594;52.052;8.354;2022-08-21T11:25:21;28.50;94.60
16955;DHT22;8594;52.052;8.354;2022-08-21T11:27:55;28.30;94.80
16955;DHT22;8594;52.052;8.354;2022-08-21T11:30:31;28.30;94.50
16955;DHT22;8594;52.052;8.354;2022-08-21T11:33:20;28.50;95.70
16955;DHT22;8594;52.052;8.354;2022-08-21T11:36:05;28.20;94.90
16955;DHT22;8594;52.052;8.354;2022-08-21T11:38:40;28.20;95.50
16955;DHT22;8594;52.052;8.354;2022-08-21T11:41:20;28.10;95.10
16955;DHT22;8594;52.052;8.354;2022-08-21T11:43:57;28.20;94.90
16955;DHT22;8594;52.052;8.354;2022-08-21T11:46:38;28.60;95.10
16955;DHT22;8594;52.052;8.354;2022-08-21T11:49:25;28.80;94.10
16955;DHT22;8594;52.052;8.354;2022-08-21T11:52:07;28.70;94.80
16955;DHT22;8594;52.052;8.354;2022-08-21T11:54:42;28.90;94.40
16955;DHT22;8594;52.052;8.354;2022-08-21T11:57:17;29.10;94.70
16955;DHT22;8594;52.052;8.354;2022-08-21T11:59:52;28.60;93.70
16955;DHT22;8594;52.052;8.354;2022-08-21T12:02:27;28.70;93.30
16955;DHT22;8594;52.052;8.354;2022-08-21T12:04:58;28.70;92.70
16955;DHT22;8594;52.052;8.354;2022-08-21T12:07:36;29.00;93.00
16955;DHT22;8594;52.052;8.354;2022-08-21T12:10:08;29.00;92.90
16955;DHT22;8594;52.052;8.354;2022-08-21T12:12:39;28.70;92.30
16955;DHT22;8594;52.052;8.354;2022-08-21T12:15:25;28.90;93.40
16955;DHT22;8594;52.052;8.354;2022-08-21T12:17:58;29.10;92.40
16955;DHT22;8594;52.052;8.354;2022-08-21T12:20:36;29.10;92.00
16955;DHT22;8594;52.052;8.354;2022-08-21T12:23:23;29.10;92.80
16955;DHT22;8594;52.052;8.354;2022-08-21T12:26:22;29.30;92.10
16955;DHT22;8594;52.052;8.354;2022-08-21T12:29:07;29.00;92.30
16955;DHT22;8594;52.052;8.354;2022-08-21T12:31:52;29.10;92.80
16955;DHT22;8594;52.052;8.354;2022-08-21T12:34:24;29.00;92.50
16955;DHT22;8594;52.052;8.354;2022-08-21T12:37:00;28.90;92.20
16955;DHT22;8594;52.052;8.354;2022-08-21T12:39:34;29.00;91.80
16955;DHT22;8594;52.052;8.354;2022-08-21T12:42:07;29.20;91.90
16955;DHT22;8594;52.052;8.354;2022-08-21T12:44:44;29.40;92.20
16955;DHT22;8594;52.052;8.354;2022-08-21T12:47:21;29.00;92.00
16955;DHT22;8594;52.052;8.354;2022-08-21T12:49:59;29.10;91.70
16955;DHT22;8594;52.052;8.354;2022-08-21T12:52:32;29.20;91.80
16955;DHT22;8594;52.052;8.354;2022-08-21T12:55:03;29.30;92.00
16955;DHT22;8594;52.052;8.354;2022-08-21T12:57:31;29.10;91.30
16955;DHT22;8594;52.052;8.354;2022-08-21T12:59:59;29.10;91.30
16955;DHT22;8594;52.052;8.354;2022-08-21T13:02:30;29.20;92.60
16955;DHT22;8594;52.052;8.354;2022-08-21T13:05:03;29.20;91.70
16955;DHT22;8594;52.052;8.354;2022-08-21T13:07:33;29.00;91.80
16955;DHT22;8594;52.052;8.354;2022-08-21T13:10:06;28.70;92.20
16955;DHT22;8594;52.052;8.354;2022-08-21T13:12:42;29.00;92.20
16955;DHT22;8594;52.052;8.354;2022-08-21T13:15:11;28.90;91.50
16955;DHT22;8594;52.052;8.354;2022-08-21T13:17:41;28.90;92.10
16955;DHT22;8594;52.052;8.354;2022-08-21T13:20:20;29.00;91.10
16955;DHT22;8594;52.052;8.354;2022-08-21T13:22:48;29.10;91.40
16955;DHT22;8594;52.052;8.354;2022-08-21T13:25:19;29.50;91.10
16955;DHT22;8594;52.052;8.354;2022-08-21T13:27:58;29.40;91.50
16955;DHT22;8594;52.052;8.354;2022-08-21T13:30:27;29.20;90.90
16955;DHT22;8594;52.052;8.354;2022-08-21T13:32:59;29.30;91.10
16955;DHT22;8594;52.052;8.354;2022-08-21T13:35:31;29.60;90.70
16955;DHT22;8594;52.052;8.354;2022-08-21T13:38:04;29.40;90.30
16955;DHT22;8594;52.052;8.354;2022-08-21T13:40:39;29.30;89.10
16955;DHT22;8594;52.052;8.354;2022-08-21T13:43:13;29.40;89.70
16955;DHT22;8594;52.052;8.354;2022-08-21T13:45:47;29.30;90.90
16955;DHT22;8594;52.052;8.354;2022-08-21T13:48:17;29.10;90.60
16955;DHT22;8594;52.052;8.354;2022-08-21T13:50:44;28.80;88.50
16955;DHT22;8594;52.052;8.354;2022-08-21T13:53:26;28.70;87.10
16955;DHT22;8594;52.052;8.354;2022-08-21T13:55:58;28.60;89.70
16955;DHT22;8594;52.052;8.354;2022-08-21T13:58:27;28.80;89.10
16955;DHT22;8594;52.052;8.354;2022-08-21T14:00:57;28.80;90.40
16955;DHT22;8594;52.052;8.354;2022-08-21T14:03:31;29.20;89.40
16955;DHT22;8594;52.052;8.354;2022-08-21T14:06:00;29.00;88.90
16955;DHT22;8594;52.052;8.354;2022-08-21T14:08:32;28.90;90.00
16955;DHT22;8594;52.052;8.354;2022-08-21T14:11:05;29.00;88.70
16955;DHT22;8594;52.052;8.354;2022-08-21T14:13:38;28.90;87.10
16955;DHT22;8594;52.052;8.354;2022-08-21T14:16:15;29.10;89.80
16955;DHT22;8594;52.052;8.354;2022-08-21T14:18:47;28.80;88.60
16955;DHT22;8594;52.052;8.354;2022-08-21T14:21:30;28.90;89.80
16955;DHT22;8594;52.052;8.354;2022-08-21T14:24:10;29.00;88.40
16955;DHT22;8594;52.052;8.354;2022-08-21T14:26:49;29.00;89.20
16955;DHT22;8594;52.052;8.354;2022-08-21T14:29:20;28.80;89.20
16955;DHT22;8594;52.052;8.354;2022-08-21T14:31:50;28.70;90.10
16955;DHT22;8594;52.052;8.354;2022-08-21T14:34:17;28.60;89.30
16955;DHT22;8594;52.052;8.354;2022-08-21T14:36:45;28.10;90.30
16955;DHT22;8594;52.052;8.354;2022-08-21T14:39:12;27.90;89.70
16955;DHT22;8594;52.052;8.354;2022-08-21T14:41:39;27.70;90.20
16955;DHT22;8594;52.052;8.354;2022-08-21T14:44:09;27.70;90.30
16955;DHT22;8594;52.052;8.354;2022-08-21T14:46:37;28.10;89.40
16955;DHT22;8594;52.052;8.354;2022-08-21T14:49:04;28.20;90.30
16955;DHT22;8594;52.052;8.354;2022-08-21T14:51:31;27.90;90.20
16955;DHT22;8594;52.052;8.354;2022-08-21T14:53:57;27.70;90.40
16955;DHT22;8594;52.052;8.354;2022-08-21T14:56:24;27.70;90.80
16955;DHT22;8594;52.052;8.354;2022-08-21T14:58:52;27.60;90.30
16955;DHT22;8594;52.052;8.354;2022-08-21T15:01:22;27.90;90.80
16955;DHT22;8594;52.052;8.354;2022-08-21T15:03:49;27.60;90.30
16955;DHT22;8594;52.052;8.354;2022-08-21T15:06:17;27.50;90.10
16955;DHT22;8594;52.052;8.354;2022-08-21T15:08:46;27.40;90.40
16955;DHT22;8594;52.052;8.354;2022-08-21T15:11:17;27.60;90.90
16955;DHT22;8594;52.052;8.354;2022-08-21T15:13:46;27.70;90.60
16955;DHT22;8594;52.052;8.354;2022-08-21T15:16:26;27.60;90.50
16955;DHT22;8594;52.052;8.354;2022-08-21T15:19:00;27.70;90.90
16955;DHT22;8594;52.052;8.354;2022-08-21T15:21:33;27.60;90.80
16955;DHT22;8594;52.052;8.354;2022-08-21T15:24:02;27.90;90.50
16955;DHT22;8594;52.052;8.354;2022-08-21T15:26:31;28.00;90.00
16955;DHT22;8594;52.052;8.354;2022-08-21T15:28:59;27.90;89.90
16955;DHT22;8594;52.052;8.354;2022-08-21T15:31:28;27.90;90.20
16955;DHT22;8594;52.052;8.354;2022-08-21T15:33:55;27.90;90.60
16955;DHT22;8594;52.052;8.354;2022-08-21T15:36:22;28.00;89.70
16955;DHT22;8594;52.052;8.354;2022-08-21T15:38:49;28.00;89.00
16955;DHT22;8594;52.052;8.354;2022-08-21T15:41:17;28.10;87.40
16955;DHT22;8594;52.052;8.354;2022-08-21T15:43:46;28.10;88.80
16955;DHT22;8594;52.052;8.354;2022-08-21T15:46:17;27.90;89.00
16955;DHT22;8594;52.052;8.354;2022-08-21T15:48:47;27.90;88.40
16955;DHT22;8594;52.052;8.354;2022-08-21T15:51:15;27.90;87.10
16955;DHT22;8594;52.052;8.354;2022-08-21T15:53:43;28.00;88.80
16955;DHT22;8594;52.052;8.354;2022-08-21T15:56:16;27.90;87.60
16955;DHT22;8594;52.052;8.354;2022-08-21T15:58:48;27.70;87.70
16955;DHT22;8594;52.052;8.354;2022-08-21T16:01:16;27.70;86.90
16955;DHT22;8594;52.052;8.354;2022-08-21T16:03:48;27.70;87.30
16955;DHT22;8594;52.052;8.354;2022-08-21T16:06:18;27.60;87.80
16955;DHT22;8594;52.052;8.354;2022-08-21T16:08:45;27.50;89.40